Time;durP1;ratioP1;P1;durP2;ratioP2;P2;SDS_P1;SDS_P2;PMS_P1;PMS_P2;Temp;Humidity;BMP_temperature;BMP_pressure;BME280_temperature;BME280_humidity;BME280_pressure;Samples;Min_cycle;Max_cycle;Signal;HPM_P1;HPM_P2
2023/03/16 00:00:26;;;;;;;10.93;5.53;;;;;;;;;;5015283;28;20284;-76
2023/03/16 00:02:52;;;;;;;12.80;6.47;;;;;;;;;;5021218;28;20264;-76
2023/03/16 00:05:18;;;;;;;15.23;6.23;;;;;;;;;;5029469;28;20264;-76
2023/03/16 00:07:44;;;;;;;12.27;6.07;;;;;;;;;;5034235;28;20418;-76
2023/03/16 00:10:11;;;;;;;9.63;5.67;;;;;;;;;;5020738;28;20279;-76
2023/03/16 00:12:42;;;;;;;12.63;5.53;;;;;;;;;;5036792;28;20469;-76
2023/03/16 00:15:08;;;;;;;13.77;5.60;;;;;;;;;;5027047;28;20308;-76
2023/03/16 00:17:34;;;;;;;11.40;5.43;;;;;;;;;;5020256;28;20296;-76
2023/03/16 00:20:05;;;;;;;12.93;5.80;;;;;;;;;;5015855;28;20269;-76
2023/03/16 00:22:31;;;;;;;11.73;5.50;;;;;;;;;;5017501;28;20061;-76
2023/03/16 00:24:57;;;;;;;13.97;5.50;;;;;;;;;;5033481;28;20315;-76
2023/03/16 00:27:28;;;;;;;12.27;5.70;;;;;;;;;;5033163;28;20284;-76
2023/03/16 00:29:54;;;;;;;13.63;6.30;;;;;;;;;;5032383;28;20784;-76
2023/03/16 00:32:34;;;;;;;9.00;5.43;;;12.10;87.00;;;;;;5009463;28;20269;-76
2023/03/16 00:35:01;;;;;;;9.63;5.00;;;2.20;99.90;;;;;;5031581;28;20276;-76
2023/03/16 00:37:31;;;;;;;10.13;5.33;;;2.10;99.90;;;;;;5029214;28;20303;-76
2023/03/16 00:39:59;;;;;;;11.37;4.93;;;2.20;99.90;;;;;;5039608;28;20280;-76
2023/03/16 00:42:28;;;;;;;12.73;6.13;;;2.20;99.90;;;;;;5034352;28;20286;-76
2023/03/16 00:44:57;;;;;;;7.43;5.13;;;2.30;99.90;;;;;;5019679;28;20268;-76
2023/03/16 00:47:29;;;;;;;9.63;5.43;;;2.30;99.90;;;;;;5019894;28;20284;-76
2023/03/16 00:49:58;;;;;;;10.17;5.00;;;2.20;99.90;;;;;;5015378;28;20269;-76
2023/03/16 00:52:26;;;;;;;10.17;5.40;;;2.20;99.90;;;;;;5026696;28;20288;-76
2023/03/16 00:54:54;;;;;;;10.70;5.10;;;2.20;99.90;;;;;;5008310;28;20276;-76
2023/03/16 00:57:23;;;;;;;11.53;6.70;;;2.10;99.90;;;;;;5009580;28;20291;-76
2023/03/16 00:59:50;;;;;;;12.07;5.10;;;2.20;99.90;;;;;;5025711;28;20981;-76
2023/03/16 01:02:22;;;;;;;9.53;5.57;;;2.10;99.90;;;;;;5014618;28;20306;-76
2023/03/16 01:04:47;;;;;;;11.38;5.60;;;2.20;99.90;;;;;;5029106;28;20782;-76
2023/03/16 01:07:14;;;;;;;10.97;5.50;;;2.20;99.90;;;;;;5027395;28;20041;-76
2023/03/16 01:09:43;;;;;;;12.37;5.73;;;2.20;99.90;;;;;;5027192;28;20018;-76
2023/03/16 01:12:15;;;;;;;9.00;4.70;;;2.30;99.90;;;;;;5028880;28;20779;-75
2023/03/16 01:14:46;;;;;;;10.18;4.88;;;2.30;99.90;;;;;;5029616;28;20279;-76
2023/03/16 01:17:13;;;;;;;12.27;5.47;;;2.30;99.90;;;;;;5009584;28;20049;-75
2023/03/16 01:19:40;;;;;;;8.27;4.97;;;2.30;99.90;;;;;;5012809;28;20291;-75
2023/03/16 01:22:08;;;;;;;10.73;5.27;;;2.30;99.90;;;;;;5014308;28;21340;-76
2023/03/16 01:24:37;;;;;;;11.97;5.57;;;2.20;99.90;;;;;;5008841;28;20362;-75
2023/03/16 01:27:07;;;;;;;11.07;5.03;;;2.20;99.90;;;;;;5010806;28;20621;-76
2023/03/16 01:29:32;;;;;;;7.90;5.03;;;2.30;99.90;;;;;;5011821;28;20280;-76
2023/03/16 01:31:58;;;;;;;10.30;5.07;;;2.30;99.90;;;;;;5026161;28;20294;-76
2023/03/16 01:34:24;;;;;;;10.37;5.03;;;2.30;99.90;;;;;;5025843;28;20060;-77
2023/03/16 01:36:50;;;;;;;9.97;4.40;;;2.30;99.90;;;;;;5008276;28;20284;-75
2023/03/16 01:39:16;;;;;;;11.00;5.47;;;2.40;99.90;;;;;;5008707;28;20129;-76
2023/03/16 01:41:43;;;;;;;10.33;4.50;;;2.30;99.90;;;;;;5010187;28;20033;-76
2023/03/16 01:44:23;;;;;;;8.80;4.47;;;2.40;99.90;;;;;;5024167;28;20315;-76
2023/03/16 01:46:49;;;;;;;8.13;4.40;;;2.40;99.90;;;;;;5010987;28;20292;-76
2023/03/16 01:49:27;;;;;;;7.57;4.40;;;2.50;99.90;;;;;;5028127;28;21189;-76
2023/03/16 01:51:58;;;;;;;5.67;3.63;;;2.50;99.90;;;;;;5025203;28;20617;-76
2023/03/16 01:54:41;;;;;;;11.53;4.43;;;2.50;99.90;;;;;;5010508;28;20267;-75
2023/03/16 01:57:28;;;;;;;7.97;3.97;;;2.50;99.90;;;;;;5008760;28;20299;-75
2023/03/16 02:00:17;;;;;;;8.53;3.87;;;2.60;99.90;;;;;;5028041;28;20334;-75
2023/03/16 02:02:47;;;;;;;8.33;3.53;;;2.70;99.90;;;;;;5024202;28;20288;-76
2023/03/16 02:05:29;;;;;;;8.67;4.00;;;2.70;99.90;;;;;;5008128;28;20280;-76
2023/03/16 02:07:57;;;;;;;8.88;3.67;;;2.70;99.90;;;;;;5026915;28;20312;-76
2023/03/16 02:10:25;;;;;;;8.23;3.80;;;2.60;99.90;;;;;;5008712;28;20038;-76
2023/03/16 02:12:52;;;;;;;10.77;4.80;;;2.60;99.90;;;;;;5008466;28;20306;-75
2023/03/16 02:15:20;;;;;;;10.77;4.70;;;2.70;99.90;;;;;;5023704;28;20343;-76
2023/03/16 02:17:48;;;;;;;9.57;4.13;;;2.60;99.90;;;;;;5010734;28;20436;-76
2023/03/16 02:20:34;;;;;;;6.70;3.93;;;2.60;99.90;;;;;;5026302;28;20720;-76
2023/03/16 02:23:01;;;;;;;6.77;3.67;;;2.60;99.90;;;;;;5007072;28;20410;-76
2023/03/16 02:25:43;;;;;;;7.37;4.27;;;2.60;99.90;;;;;;5007302;28;20425;-76
2023/03/16 02:28:46;;;;;;;5.50;3.67;;;2.50;99.90;;;;;;5023992;28;20304;-76
2023/03/16 02:31:14;;;;;;;7.88;3.53;;;2.50;99.90;;;;;;5010592;28;20283;-75
2023/03/16 02:33:44;;;;;;;6.70;3.43;;;2.50;99.90;;;;;;5006912;28;20104;-76
2023/03/16 02:36:12;;;;;;;8.93;3.90;;;2.50;99.90;;;;;;5006822;28;20284;-76
2023/03/16 02:38:37;;;;;;;8.77;4.20;;;2.50;99.90;;;;;;5010048;28;20276;-76
2023/03/16 02:41:20;;;;;;;6.37;3.57;;;2.40;99.90;;;;;;5007890;28;20288;-76
2023/03/16 02:44:00;;;;;;;7.22;3.60;;;2.40;99.90;;;;;;5008152;28;20381;-76
2023/03/16 02:46:27;;;;;;;8.07;3.87;;;2.30;99.90;;;;;;5007295;28;20033;-75
2023/03/16 02:49:01;;;;;;;6.83;3.63;;;2.30;99.90;;;;;;5025233;28;20291;-75
2023/03/16 02:51:28;;;;;;;4.23;3.30;;;2.40;99.90;;;;;;5011630;28;20288;-76
2023/03/16 02:53:54;;;;;;;5.93;3.40;;;2.40;99.90;;;;;;5032190;28;20748;-76
2023/03/16 02:56:21;;;;;;;9.33;3.73;;;2.40;99.90;;;;;;5011378;28;20264;-76
2023/03/16 02:58:46;;;;;;;7.33;3.47;;;2.50;99.90;;;;;;5028116;28;20021;-76
2023/03/16 03:01:15;;;;;;;5.10;3.03;;;2.50;99.90;;;;;;5010953;28;20351;-76
2023/03/16 03:03:40;;;;;;;5.63;3.63;;;2.40;99.90;;;;;;5009571;28;20083;-76
2023/03/16 03:06:08;;;;;;;7.20;3.03;;;2.40;99.90;;;;;;5032196;28;20355;-76
2023/03/16 03:08:36;;;;;;;6.20;3.00;;;2.40;99.90;;;;;;4998580;28;20049;-75
2023/03/16 03:11:02;;;;;;;6.53;3.27;;;2.50;99.90;;;;;;5023625;28;20314;-76
2023/03/16 03:13:30;;;;;;;9.73;3.47;;;2.40;99.90;;;;;;5015248;28;20292;-76
2023/03/16 03:15:56;;;;;;;5.63;2.83;;;2.40;99.90;;;;;;5027470;28;20040;-76
2023/03/16 03:18:24;;;;;;;6.67;3.03;;;2.40;99.90;;;;;;5016936;28;20716;-76
2023/03/16 03:20:49;;;;;;;6.40;2.70;;;2.40;99.90;;;;;;5024879;28;20456;-76
2023/03/16 03:23:15;;;;;;;6.57;3.03;;;2.50;99.90;;;;;;5009342;28;20260;-76
2023/03/16 03:25:41;;;;;;;5.80;3.00;;;2.50;99.90;;;;;;5010805;28;20404;-76
2023/03/16 03:28:07;;;;;;;5.93;2.60;;;2.50;99.90;;;;;;5020715;28;20284;-76
2023/03/16 03:30:36;;;;;;;7.77;3.47;;;2.50;99.90;;;;;;5037446;28;20013;-76
2023/03/16 03:33:01;;;;;;;7.57;3.20;;;2.60;99.90;;;;;;5017248;28;20310;-76
2023/03/16 03:35:27;;;;;;;9.40;3.37;;;2.50;99.90;;;;;;5020659;28;20743;-76
2023/03/16 03:37:53;;;;;;;4.90;3.03;;;2.60;99.90;;;;;;5025683;28;20554;-76
2023/03/16 03:40:20;;;;;;;14.03;3.13;;;2.60;99.90;;;;;;5004849;28;20025;-78
2023/03/16 03:42:46;;;;;;;5.70;3.17;;;2.60;99.90;;;;;;5030545;28;20104;-76
2023/03/16 03:45:13;;;;;;;8.73;3.30;;;2.60;99.90;;;;;;5036320;28;20276;-76
2023/03/16 03:47:40;;;;;;;5.03;2.47;;;2.70;99.90;;;;;;5015018;28;20276;-76
2023/03/16 03:50:07;;;;;;;7.13;3.23;;;2.60;99.90;;;;;;5028774;28;20276;-77
2023/03/16 03:52:32;;;;;;;7.17;3.10;;;2.60;99.90;;;;;;5031601;28;20308;-76
2023/03/16 03:55:00;;;;;;;8.80;3.30;;;2.60;99.90;;;;;;5040912;28;20779;-76
2023/03/16 03:57:26;;;;;;;5.13;2.90;;;2.60;99.90;;;;;;5034033;28;20069;-76
2023/03/16 03:59:52;;;;;;;6.27;3.77;;;2.70;99.90;;;;;;5020800;28;20301;-76
2023/03/16 04:02:19;;;;;;;5.57;3.53;;;2.60;99.90;;;;;;5012906;28;20441;-76
2023/03/16 04:04:45;;;;;;;8.87;3.80;;;2.70;99.90;;;;;;5027526;28;20040;-76
2023/03/16 04:07:11;;;;;;;6.27;3.43;;;2.70;99.90;;;;;;5017287;28;20281;-77
2023/03/16 04:09:36;;;;;;;8.03;3.50;;;2.70;99.90;;;;;;5020199;28;20108;-77
2023/03/16 04:12:04;;;;;;;8.23;3.77;;;2.60;99.90;;;;;;5021244;28;20430;-77
2023/03/16 04:14:30;;;;;;;8.97;3.80;;;2.60;99.90;;;;;;5019813;28;20510;-76
2023/03/16 04:16:56;;;;;;;6.03;3.43;;;2.60;99.90;;;;;;5020517;28;20339;-76
2023/03/16 04:19:24;;;;;;;9.03;3.60;;;2.50;99.90;;;;;;5007343;28;20376;-75
2023/03/16 04:21:53;;;;;;;4.57;3.07;;;2.50;99.90;;;;;;5036766;28;20075;-76
2023/03/16 04:24:21;;;;;;;9.67;3.67;;;2.60;99.90;;;;;;5019105;28;20290;-75
2023/03/16 04:26:47;;;;;;;9.87;3.53;;;2.60;99.90;;;;;;5015974;28;20292;-75
2023/03/16 04:29:16;;;;;;;10.97;3.87;;;2.70;99.90;;;;;;5033325;28;20276;-78
2023/03/16 04:31:42;;;;;;;6.47;3.20;;;2.70;99.90;;;;;;5025594;28;20078;-76
2023/03/16 04:34:10;;;;;;;7.37;3.60;;;2.70;99.90;;;;;;5019677;28;20298;-76
2023/03/16 04:36:40;;;;;;;8.10;3.23;;;2.70;99.90;;;;;;5035929;28;20276;-76
2023/03/16 04:39:07;;;;;;;5.23;3.00;;;2.60;99.90;;;;;;5010925;28;20359;-77
2023/03/16 04:41:36;;;;;;;5.30;3.37;;;2.70;99.90;;;;;;5019348;28;20275;-76
2023/03/16 04:44:01;;;;;;;9.53;4.23;;;2.70;99.90;;;;;;5033154;28;20284;-77
2023/03/16 04:46:28;;;;;;;8.53;3.60;;;2.80;99.90;;;;;;5005693;28;20281;-76
2023/03/16 04:48:57;;;;;;;7.13;4.07;;;2.90;99.90;;;;;;5018542;28;20021;-76
2023/03/16 04:51:23;;;;;;;7.80;3.83;;;2.90;99.90;;;;;;5019152;28;20351;-76
2023/03/16 04:53:48;;;;;;;7.33;4.10;;;2.90;99.90;;;;;;5036020;28;20272;-77
2023/03/16 04:56:17;;;;;;;7.27;3.80;;;2.90;99.90;;;;;;5019458;28;20748;-77
2023/03/16 04:58:44;;;;;;;8.17;3.73;;;2.90;99.90;;;;;;5040506;28;20028;-76
2023/03/16 05:01:12;;;;;;;8.37;3.53;;;2.90;99.90;;;;;;5034827;28;20267;-76
2023/03/16 05:03:38;;;;;;;9.43;4.60;;;2.90;99.90;;;;;;5017393;28;20269;-77
2023/03/16 05:06:04;;;;;;;7.57;4.03;;;3.00;99.90;;;;;;5027867;28;20025;-76
2023/03/16 05:08:29;;;;;;;6.63;3.70;;;3.10;99.90;;;;;;5027558;28;20096;-77
2023/03/16 05:10:56;;;;;;;7.33;4.33;;;3.10;99.90;;;;;;5022138;28;20287;-76
2023/03/16 05:13:22;;;;;;;7.67;4.20;;;3.00;99.90;;;;;;5034683;28;20026;-77
2023/03/16 05:15:48;;;;;;;10.30;4.57;;;3.10;99.90;;;;;;5009093;28;20257;-77
2023/03/16 05:18:14;;;;;;;9.27;4.63;;;3.00;99.90;;;;;;5031298;28;20029;-77
2023/03/16 05:20:41;;;;;;;8.73;4.33;;;3.00;99.90;;;;;;5016952;28;20357;-76
2023/03/16 05:23:07;;;;;;;7.63;4.20;;;3.00;99.90;;;;;;5013835;28;20025;-77
2023/03/16 05:25:33;;;;;;;7.67;4.40;;;2.90;99.90;;;;;;5010059;28;20304;-77
2023/03/16 05:28:01;;;;;;;5.47;3.90;;;3.00;99.90;;;;;;5035278;28;20400;-77
2023/03/16 05:30:27;;;;;;;7.03;5.03;;;3.00;99.90;;;;;;5006493;28;20265;-77
2023/03/16 05:32:55;;;;;;;7.50;4.30;;;3.00;99.90;;;;;;5025095;28;20277;-76
2023/03/16 05:35:21;;;;;;;7.93;4.53;;;2.90;99.90;;;;;;5019991;28;20018;-76
2023/03/16 05:37:46;;;;;;;9.33;4.30;;;2.90;99.90;;;;;;5017331;28;20260;-76
2023/03/16 05:40:16;;;;;;;11.20;4.90;;;2.90;99.90;;;;;;5016895;28;20082;-76
2023/03/16 05:42:49;;;;;;;9.63;4.57;;;3.00;99.90;;;;;;5018778;28;20033;-76
2023/03/16 05:45:15;;;;;;;8.77;4.80;;;3.00;99.90;;;;;;5021744;28;20289;-76
2023/03/16 05:47:42;;;;;;;7.60;5.23;;;3.00;99.90;;;;;;5019202;28;20285;-77
2023/03/16 05:50:15;;;;;;;10.87;5.17;;;3.00;99.90;;;;;;5029148;28;20025;-77
2023/03/16 05:52:44;;;;;;;8.83;4.83;;;2.90;99.90;;;;;;5015708;28;20703;-77
2023/03/16 05:55:13;;;;;;;10.70;5.20;;;3.00;99.90;;;;;;5029275;28;20260;-77
2023/03/16 05:57:39;;;;;;;9.10;5.13;;;3.00;99.90;;;;;;5016700;28;20284;-76
2023/03/16 06:00:15;;;;;;;10.60;5.27;;;3.10;99.90;;;;;;5042340;28;20287;-77
2023/03/16 06:02:49;;;;;;;14.10;5.43;;;2.90;99.90;;;;;;5016505;28;20021;-77
2023/03/16 06:05:17;;;;;;;7.47;4.83;;;3.00;99.90;;;;;;5007777;28;20268;-75
2023/03/16 06:07:43;;;;;;;12.13;5.30;;;3.10;99.90;;;;;;5033370;28;20375;-77
2023/03/16 06:10:10;;;;;;;8.07;5.13;;;3.10;99.90;;;;;;5026456;28;20377;-77
2023/03/16 06:12:36;;;;;;;10.20;5.67;;;3.10;99.90;;;;;;5019072;28;20304;-76
2023/03/16 06:15:06;;;;;;;8.73;4.57;;;3.20;99.90;;;;;;5023820;28;20260;-76
2023/03/16 06:17:35;;;;;;;8.60;5.47;;;3.30;99.90;;;;;;5021984;28;20315;-77
2023/03/16 06:20:01;;;;;;;7.73;5.27;;;3.30;99.90;;;;;;5018433;28;20279;-77
2023/03/16 06:22:29;;;;;;;12.77;6.00;;;3.40;99.90;;;;;;5030092;28;20287;-76
2023/03/16 06:24:54;;;;;;;9.17;5.57;;;3.60;99.90;;;;;;5017790;28;20629;-77
2023/03/16 06:27:20;;;;;;;8.60;5.37;;;3.60;99.90;;;;;;5011413;28;20339;-76
2023/03/16 06:29:46;;;;;;;7.83;5.03;;;3.70;99.90;;;;;;5013206;28;20022;-76
2023/03/16 06:32:13;;;;;;;11.30;5.63;;;3.70;99.90;;;;;;5014542;28;20018;-77
2023/03/16 06:34:40;;;;;;;12.20;6.13;;;3.80;99.90;;;;;;5021439;28;20438;-77
2023/03/16 06:37:06;;;;;;;11.77;5.20;;;3.90;99.90;;;;;;5015888;28;20112;-76
2023/03/16 06:39:32;;;;;;;10.97;5.57;;;4.00;99.90;;;;;;5043684;28;20115;-77
2023/03/16 06:42:00;;;;;;;11.03;5.97;;;4.10;99.90;;;;;;5007258;28;20307;-77
2023/03/16 06:44:27;;;;;;;9.03;5.23;;;4.10;99.90;;;;;;5034680;28;20320;-77
2023/03/16 06:46:53;;;;;;;10.77;6.00;;;4.10;99.90;;;;;;5012566;28;20064;-77
2023/03/16 06:49:21;;;;;;;12.87;5.63;;;4.20;99.90;;;;;;5019583;28;20465;-76
2023/03/16 06:51:49;;;;;;;12.30;5.33;;;4.30;99.90;;;;;;5029118;28;20323;-75
2023/03/16 06:54:15;;;;;;;8.13;5.57;;;4.30;99.90;;;;;;5024648;28;20038;-76
2023/03/16 06:56:40;;;;;;;10.90;5.73;;;4.40;99.90;;;;;;5008177;28;20094;-76
2023/03/16 06:59:06;;;;;;;9.20;5.63;;;4.40;99.90;;;;;;5009429;28;20497;-77
2023/03/16 07:01:35;;;;;;;8.83;5.50;;;4.50;99.90;;;;;;5006752;28;20071;-75
2023/03/16 07:04:00;;;;;;;9.97;5.00;;;4.50;99.90;;;;;;5008355;28;20030;-77
2023/03/16 07:06:26;;;;;;;9.30;5.30;;;4.50;99.90;;;;;;5007422;28;20032;-76
2023/03/16 07:08:54;;;;;;;11.03;5.83;;;4.50;99.90;;;;;;5009567;28;20022;-77
2023/03/16 07:11:19;;;;;;;9.13;5.80;;;4.60;99.90;;;;;;5008439;28;20033;-76
2023/03/16 07:13:45;;;;;;;9.93;5.20;;;4.80;99.90;;;;;;5010197;28;20022;-75
2023/03/16 07:16:10;;;;;;;14.80;5.23;;;4.90;99.90;;;;;;5009374;28;20526;-76
2023/03/16 07:18:39;;;;;;;6.97;4.90;;;5.00;99.90;;;;;;5007569;28;20021;-76
2023/03/16 07:21:05;;;;;;;6.97;4.70;;;5.00;99.90;;;;;;5024742;28;20037;-76
2023/03/16 07:23:35;;;;;;;9.40;5.33;;;5.10;99.90;;;;;;5008939;28;20025;-76
2023/03/16 07:26:03;;;;;;;11.07;5.50;;;5.20;99.90;;;;;;5008475;28;20366;-76
2023/03/16 07:28:29;;;;;;;7.63;5.07;;;5.30;99.90;;;;;;5026277;28;20067;-77
2023/03/16 07:30:54;;;;;;;8.23;4.53;;;5.30;99.90;;;;;;5007057;28;20034;-77
2023/03/16 07:33:25;;;;;;;9.97;5.60;;;5.50;99.90;;;;;;5024784;28;20615;-77
2023/03/16 07:35:50;;;;;;;8.13;5.60;;;5.60;99.90;;;;;;5006614;28;20037;-75
2023/03/16 07:38:20;;;;;;;9.97;5.07;;;5.70;99.90;;;;;;5025971;28;20033;-76
2023/03/16 07:40:48;;;;;;;9.87;5.33;;;5.80;99.90;;;;;;5008216;28;20037;-76
2023/03/16 07:43:13;;;;;;;6.73;4.83;;;5.80;99.90;;;;;;5022908;28;20361;-76
2023/03/16 07:45:39;;;;;;;9.27;4.80;;;5.90;99.90;;;;;;5008121;28;20029;-76
2023/03/16 07:48:05;;;;;;;9.97;5.10;;;6.00;99.90;;;;;;5007520;28;20127;-76
2023/03/16 07:50:30;;;;;;;9.23;4.63;;;6.00;99.90;;;;;;5010437;28;20048;-76
2023/03/16 07:52:58;;;;;;;10.20;5.20;;;6.10;99.90;;;;;;5007425;28;20026;-76
2023/03/16 07:55:24;;;;;;;10.37;4.93;;;6.30;99.90;;;;;;5026691;28;20050;-76
2023/03/16 07:57:52;;;;;;;10.57;5.43;;;6.20;99.90;;;;;;5009352;28;20457;-77
2023/03/16 08:00:22;;;;;;;12.47;5.97;;;6.40;99.90;;;;;;5009185;28;20025;-77
2023/03/16 08:02:48;;;;;;;6.90;5.07;;;6.40;99.90;;;;;;5025335;28;20030;-76
2023/03/16 08:05:15;;;;;;;11.93;6.00;;;6.50;99.90;;;;;;5005671;28;20029;-75
2023/03/16 08:07:43;;;;;;;8.70;5.07;;;6.60;99.90;;;;;;5005475;28;20026;-76
2023/03/16 08:10:10;;;;;;;11.33;5.53;;;6.60;99.90;;;;;;5008411;28;20049;-76
2023/03/16 08:12:36;;;;;;;11.20;5.47;;;6.80;99.90;;;;;;5023210;28;20072;-76
2023/03/16 08:15:01;;;;;;;11.37;5.17;;;6.90;99.90;;;;;;5027749;28;20462;-76
2023/03/16 08:17:29;;;;;;;12.97;5.83;;;7.00;99.90;;;;;;5028843;28;20108;-76
2023/03/16 08:19:56;;;;;;;11.03;6.57;;;7.00;99.90;;;;;;5012993;28;20037;-75
2023/03/16 08:22:21;;;;;;;10.40;5.30;;;7.10;99.90;;;;;;5011348;28;20175;-76
2023/03/16 08:24:47;;;;;;;10.77;5.87;;;7.10;99.90;;;;;;5011339;28;20124;-76
2023/03/16 08:27:14;;;;;;;10.10;5.23;;;7.20;99.90;;;;;;5018594;28;20167;-77
2023/03/16 08:29:42;;;;;;;12.37;5.63;;;7.20;99.90;;;;;;5029559;28;20044;-77
2023/03/16 08:32:11;;;;;;;8.30;5.00;;;7.30;99.90;;;;;;5010172;28;20144;-77
2023/03/16 08:34:39;;;;;;;11.47;5.97;;;7.30;99.90;;;;;;5007857;28;20095;-76
2023/03/16 08:37:05;;;;;;;9.23;5.17;;;7.50;99.90;;;;;;5012941;28;20033;-75
2023/03/16 08:39:32;;;;;;;11.17;5.60;;;7.60;99.90;;;;;;5011122;28;20450;-76
2023/03/16 08:42:00;;;;;;;10.00;5.07;;;7.80;99.90;;;;;;5024680;28;20086;-76
2023/03/16 08:44:28;;;;;;;6.67;4.80;;;7.90;99.90;;;;;;5011644;28;20029;-76
2023/03/16 08:46:53;;;;;;;8.40;5.13;;;8.00;99.90;;;;;;5028897;28;20037;-75
2023/03/16 08:49:22;;;;;;;8.70;5.63;;;8.00;99.90;;;;;;5024575;28;20897;-76
2023/03/16 08:51:49;;;;;;;7.80;4.60;;;7.90;99.90;;;;;;5032717;28;20017;-77
2023/03/16 08:54:14;;;;;;;9.13;4.73;;;8.00;99.90;;;;;;5011101;28;20037;-77
2023/03/16 08:56:43;;;;;;;7.67;4.40;;;8.10;99.90;;;;;;5005879;28;20022;-76
2023/03/16 08:59:11;;;;;;;5.70;4.30;;;8.20;99.90;;;;;;5031473;28;20470;-76
2023/03/16 09:01:36;;;;;;;7.33;4.33;;;8.10;99.90;;;;;;5016667;28;20113;-76
2023/03/16 09:04:02;;;;;;;7.00;4.50;;;8.30;99.90;;;;;;5013567;28;20053;-76
2023/03/16 09:06:28;;;;;;;12.00;3.77;;;8.50;99.90;;;;;;5015506;28;20085;-76
2023/03/16 09:08:56;;;;;;;12.00;5.30;;;8.50;99.90;;;;;;5020997;28;20426;-77
2023/03/16 09:11:27;;;;;;;7.03;4.60;;;8.60;99.90;;;;;;5025569;28;20391;-77
2023/03/16 09:13:53;;;;;;;6.17;3.80;;;8.80;99.90;;;;;;5021046;28;20017;-76
2023/03/16 09:16:19;;;;;;;11.03;4.63;;;8.70;99.90;;;;;;5017174;28;20472;-76
2023/03/16 09:18:46;;;;;;;5.93;4.50;;;8.70;99.90;;;;;;5005878;28;20044;-76
2023/03/16 09:21:12;;;;;;;6.70;4.03;;;8.80;99.90;;;;;;5018646;28;20034;-77
2023/03/16 09:23:41;;;;;;;8.13;4.47;;;9.00;99.90;;;;;;5020867;28;20036;-77
2023/03/16 09:26:08;;;;;;;12.00;5.10;;;8.90;99.90;;;;;;5027648;28;20025;-77
2023/03/16 09:28:37;;;;;;;7.60;5.60;;;9.10;99.90;;;;;;5015653;28;20450;-77
2023/03/16 09:31:04;;;;;;;11.17;5.00;;;9.30;99.90;;;;;;5024316;28;20381;-76
2023/03/16 09:33:34;;;;;;;7.17;4.70;;;9.30;99.90;;;;;;5022014;28;20115;-76
2023/03/16 09:36:00;;;;;;;7.90;4.60;;;9.30;99.90;;;;;;5034664;28;20451;-75
2023/03/16 09:38:27;;;;;;;11.53;5.30;;;9.30;99.90;;;;;;5022932;28;20025;-76
2023/03/16 09:41:03;;;;;;;9.90;4.23;;;9.40;99.90;;;;;;5019552;28;20031;-76
2023/03/16 09:43:46;;;;;;;7.13;4.93;;;9.70;99.90;;;;;;5004021;28;20030;-76
2023/03/16 09:46:23;;;;;;;7.20;4.25;;;9.90;99.90;;;;;;5027173;28;20057;-75
2023/03/16 09:48:52;;;;;;;12.37;6.23;;;10.00;99.90;;;;;;5025335;28;20018;-76
2023/03/16 09:51:48;;;;;;;8.63;5.20;;;9.90;99.90;;;;;;5027130;28;20430;-76
2023/03/16 09:54:48;;;;;;;10.30;4.57;;;10.10;99.90;;;;;;5011691;28;20018;-76
2023/03/16 09:57:28;;;;;;;8.93;5.00;;;9.90;99.90;;;;;;5031118;28;20022;-76
2023/03/16 09:59:59;;;;;;;7.70;4.40;;;10.00;99.90;;;;;;5023482;28;20100;-75
2023/03/16 10:02:37;;;;;;;11.03;6.40;;;9.90;99.90;;;;;;5027992;28;20025;-76
2023/03/16 10:05:10;;;;;;;6.23;4.77;;;10.00;99.90;;;;;;5018267;28;20025;-76
2023/03/16 10:08:13;;;;;;;8.63;5.22;;;10.00;99.90;;;;;;5034173;28;20021;-77
2023/03/16 10:11:00;;;;;;;7.27;4.47;;;10.10;99.90;;;;;;5027664;28;20338;-77
2023/03/16 10:13:41;;;;;;;10.17;5.17;;;10.10;99.90;;;;;;5025405;28;20033;-76
2023/03/16 10:16:13;;;;;;;8.50;4.83;;;10.00;99.90;;;;;;5022892;28;20024;-75
2023/03/16 10:18:45;;;;;;;8.98;4.78;;;9.70;99.90;;;;;;5034049;28;20037;-76
2023/03/16 10:21:18;;;;;;;7.50;5.28;;;9.70;99.90;;;;;;5017494;28;20068;-77
2023/03/16 10:23:46;;;;;;;11.37;4.80;;;9.80;99.90;;;;;;5016983;28;20022;-75
2023/03/16 10:26:27;;;;;;;7.37;4.40;;;9.60;99.90;;;;;;5023136;28;20033;-76
2023/03/16 10:28:55;;;;;;;9.40;5.53;;;10.00;99.90;;;;;;5034019;28;20049;-76
2023/03/16 10:31:23;;;;;;;6.37;4.33;;;10.20;99.90;;;;;;5016769;28;20445;-77
2023/03/16 10:33:57;;;;;;;16.17;5.17;;;10.20;99.90;;;;;;5017536;28;20075;-76
2023/03/16 10:36:33;;;;;;;10.27;5.47;;;10.40;99.90;;;;;;5031462;28;20030;-76
2023/03/16 10:39:03;;;;;;;8.77;4.53;;;10.60;99.90;;;;;;5012422;28;20076;-76
2023/03/16 10:41:36;;;;;;;8.30;4.50;;;10.70;99.90;;;;;;5021521;28;20031;-76
2023/03/16 10:44:11;;;;;;;11.03;4.77;;;10.50;99.90;;;;;;5018903;28;20454;-76
2023/03/16 10:46:48;;;;;;;6.10;3.93;;;10.60;99.90;;;;;;5017578;28;20021;-77
2023/03/16 10:49:47;;;;;;;13.40;4.20;;;10.90;99.90;;;;;;5018919;28;20018;-75
2023/03/16 10:52:45;;;;;;;8.37;4.77;;;10.80;99.90;;;;;;5009706;28;20415;-77
2023/03/16 10:55:29;;;;;;;10.03;5.20;;;10.90;99.90;;;;;;5018352;28;20358;-75
2023/03/16 10:57:55;;;;;;;13.70;4.90;;;11.10;99.90;;;;;;5017984;28;20468;-76
2023/03/16 11:00:33;;;;;;;6.60;4.07;;;11.20;99.90;;;;;;5026524;28;20028;-76
2023/03/16 11:03:00;;;;;;;7.57;4.20;;;11.10;99.90;;;;;;5019650;28;20121;-76
2023/03/16 11:05:33;;;;;;;6.00;4.27;;;11.30;99.90;;;;;;5007807;28;20026;-76
2023/03/16 11:08:22;;;;;;;7.33;4.20;;;11.60;99.90;;;;;;5004891;28;20026;-77
2023/03/16 11:10:58;;;;;;;7.57;3.83;;;11.50;99.90;;;;;;5026162;28;20013;-76
2023/03/16 11:13:32;;;;;;;8.07;4.40;;;11.40;99.90;;;;;;5013613;28;20021;-75
2023/03/16 11:16:20;;;;;;;8.53;4.00;;;11.40;99.90;;;;;;5020952;28;20028;-76
2023/03/16 11:18:58;;;;;;;8.83;4.53;;;11.00;99.90;;;;;;5032563;28;20171;-79
2023/03/16 11:21:37;;;;;;;8.47;4.77;;;;;;;;;;5026941;28;20021;-76
2023/03/16 11:24:05;;;;;;;5.97;3.70;;;;;;;;;;5005927;28;20045;-75
2023/03/16 11:26:33;;;;;;;5.90;3.50;;;;;;;;;;5001858;28;20030;-76
2023/03/16 11:29:02;;;;;;;7.47;3.87;;;;;;;;;;5019556;28;20044;-76
2023/03/16 11:31:28;;;;;;;8.03;4.33;;;;;;;;;;5030676;28;20017;-76
2023/03/16 11:33:56;;;;;;;4.90;3.53;;;;;;;;;;5031220;28;20036;-77
2023/03/16 11:36:37;;;;;;;6.30;3.10;;;;;;;;;;5021991;28;20026;-76
2023/03/16 11:39:06;;;;;;;9.03;3.63;;;;;;;;;;5013442;28;20462;-76
2023/03/16 11:41:33;;;;;;;7.20;4.27;;;;;;;;;;5016772;28;20053;-75
2023/03/16 11:44:03;;;;;;;7.37;3.67;;;;;;;;;;5013875;28;20057;-76
2023/03/16 11:46:51;;;;;;;5.70;3.67;;;;;;;;;;5028255;28;20047;-76
2023/03/16 11:49:36;;;;;;;7.30;3.50;;;;;;;;;;5024430;28;20434;-75
2023/03/16 11:52:08;;;;;;;6.60;3.73;;;;;;;;;;5016825;28;20036;-76
2023/03/16 11:54:35;;;;;;;;;;;;;;;;;;5036831;28;20060;-76
2023/03/16 11:57:08;;;;;;;6.03;2.97;;;;;;;;;;5018266;28;19929;-76
2023/03/16 11:59:41;;;;;;;6.77;3.47;;;;;;;;;;5022488;28;20029;-76
2023/03/16 12:02:20;;;;;;;9.02;3.85;;;;;;;;;;5019528;28;20112;-76
2023/03/16 12:05:13;;;;;;;4.60;3.03;;;;;;;;;;5026742;28;20568;-76
2023/03/16 12:07:57;;;;;;;6.07;3.05;;;;;;;;;;5019161;28;20048;-75
2023/03/16 12:10:25;;;;;;;6.97;3.17;;;;;;;;;;5032199;28;20029;-75
2023/03/16 12:13:09;;;;;;;10.27;3.57;;;;;;;;;;5006054;28;20028;-76
2023/03/16 12:15:43;;;;;;;7.50;3.60;;;;;;;;;;5035512;28;20028;-76
2023/03/16 12:18:15;;;;;;;5.67;2.80;;;;;;;;;;5021637;28;20093;-76
2023/03/16 12:20:47;;;;;;;6.13;2.90;;;;;;;;;;5036520;28;20343;-76
2023/03/16 12:23:21;;;;;;;9.75;2.83;;;;;;;;;;5023185;28;20351;-76
2023/03/16 12:25:48;;;;;;;4.97;3.23;;;;;;;;;;5019981;28;20026;-75
2023/03/16 12:28:19;;;;;;;7.17;3.30;;;;;;;;;;5021689;28;20026;-76
2023/03/16 12:30:58;;;;;;;6.17;2.97;;;;;;;;;;5027215;28;20091;-76
2023/03/16 12:33:42;;;;;;;10.20;2.73;;;;;;;;;;5035698;28;20033;-76
2023/03/16 12:36:27;;;;;;;7.00;2.90;;;;;;;;;;5022488;28;20080;-76
2023/03/16 12:38:57;;;;;;;7.57;2.33;;;;;;;;;;5015008;28;20026;-77
2023/03/16 12:41:32;;;;;;;4.38;2.63;;;;;;;;;;5034626;28;20426;-77
2023/03/16 12:44:10;;;;;;;7.70;2.70;;;;;;;;;;5031843;28;20026;-76
2023/03/16 12:46:36;;;;;;;4.75;2.33;;;;;;;;;;5025493;28;20083;-77
2023/03/16 12:49:04;;;;;;;5.45;2.70;;;;;;;;;;5035158;28;20021;-76
2023/03/16 12:51:41;;;;;;;6.60;3.00;;;;;;;;;;5029972;28;20116;-76
2023/03/16 12:54:19;;;;;;;8.32;3.40;;;;;;;;;;5026358;28;20029;-76
2023/03/16 12:56:46;;;;;;;5.30;3.13;;;;;;;;;;5012373;28;20033;-76
2023/03/16 12:59:23;;;;;;;5.22;3.30;;;;;;;;;;5012013;28;20039;-77
2023/03/16 13:01:53;;;;;;;9.68;2.92;;;;;;;;;;5026042;28;20029;-77
2023/03/16 13:04:22;;;;;;;10.38;2.65;;;;;;;;;;5025969;28;20037;-77
2023/03/16 13:06:50;;;;;;;6.20;2.83;;;;;;;;;;5024826;28;20021;-75
2023/03/16 13:09:20;;;;;;;6.85;2.63;;;;;;;;;;5023902;28;20045;-76
2023/03/16 13:11:52;;;;;;;4.90;2.60;;;;;;;;;;5023296;28;20044;-77
2023/03/16 13:14:32;;;;;;;5.00;2.50;;;;;;;;;;5008630;28;20033;-76
2023/03/16 13:17:19;;;;;;;7.10;2.87;;;;;;;;;;5024665;28;20057;-77
2023/03/16 13:20:19;;;;;;;6.33;2.50;;;;;;;;;;5023582;28;20034;-75
2023/03/16 13:22:48;;;;;;;8.67;3.10;;;;;;;;;;4974049;28;20042;-77
2023/03/16 13:25:24;;;;;;;6.40;2.40;;;;;;;;;;5025061;28;20050;-77
2023/03/16 13:27:54;;;;;;;7.10;2.43;;;;;;;;;;5007700;28;20034;-76